sensor_id;sensor_type;location;lat;lon;timestamp;P1;durP1;ratioP1;P2;durP2;ratioP2
46613;SDS011;32338;50.430;6.806;2022-10-10T00:02:03;3.17;;;1.30;;
46613;SDS011;32338;50.430;6.806;2022-10-10T00:04:30;5.05;;;2.30;;
46613;SDS011;32338;50.430;6.806;2022-10-10T00:06:56;3.55;;;2.75;;
46613;SDS011;32338;50.430;6.806;2022-10-10T00:09:23;4.20;;;1.90;;
46613;SDS011;32338;50.430;6.806;2022-10-10T00:11:51;2.97;;;1.50;;
46613;SDS011;32338;50.430;6.806;2022-10-10T00:14:17;4.70;;;1.65;;
46613;SDS011;32338;50.430;6.806;2022-10-10T00:16:44;3.47;;;1.45;;
46613;SDS011;32338;50.430;6.806;2022-10-10T00:19:11;3.63;;;1.58;;
46613;SDS011;32338;50.430;6.806;2022-10-10T00:21:37;4.95;;;1.70;;
46613;SDS011;32338;50.430;6.806;2022-10-10T00:24:04;5.50;;;3.40;;
46613;SDS011;32338;50.430;6.806;2022-10-10T00:26:31;8.50;;;3.10;;
46613;SDS011;32338;50.430;6.806;2022-10-10T00:28:58;6.78;;;2.33;;
46613;SDS011;32338;50.430;6.806;2022-10-10T00:31:25;2.05;;;1.80;;
46613;SDS011;32338;50.430;6.806;2022-10-10T00:33:51;4.93;;;1.50;;
46613;SDS011;32338;50.430;6.806;2022-10-10T00:36:18;3.50;;;1.52;;
46613;SDS011;32338;50.430;6.806;2022-10-10T00:38:45;2.03;;;1.20;;
46613;SDS011;32338;50.430;6.806;2022-10-10T00:41:12;1.38;;;1.27;;
46613;SDS011;32338;50.430;6.806;2022-10-10T00:43:38;7.40;;;2.05;;
46613;SDS011;32338;50.430;6.806;2022-10-10T00:46:07;9.63;;;3.78;;
46613;SDS011;32338;50.430;6.806;2022-10-10T00:48:34;5.75;;;2.35;;
46613;SDS011;32338;50.430;6.806;2022-10-10T00:51:04;4.53;;;1.40;;
46613;SDS011;32338;50.430;6.806;2022-10-10T00:53:33;5.75;;;1.80;;
46613;SDS011;32338;50.430;6.806;2022-10-10T00:56:03;3.50;;;1.20;;
46613;SDS011;32338;50.430;6.806;2022-10-10T00:58:31;4.20;;;1.50;;
46613;SDS011;32338;50.430;6.806;2022-10-10T01:01:00;8.25;;;1.63;;
46613;SDS011;32338;50.430;6.806;2022-10-10T01:03:28;4.93;;;2.72;;
46613;SDS011;32338;50.430;6.806;2022-10-10T01:05:54;7.65;;;2.40;;
46613;SDS011;32338;50.430;6.806;2022-10-10T01:08:21;6.60;;;2.00;;
46613;SDS011;32338;50.430;6.806;2022-10-10T01:10:53;6.18;;;2.38;;
46613;SDS011;32338;50.430;6.806;2022-10-10T01:13:30;10.98;;;2.55;;
46613;SDS011;32338;50.430;6.806;2022-10-10T01:16:05;4.65;;;2.35;;
46613;SDS011;32338;50.430;6.806;2022-10-10T01:18:46;13.55;;;3.72;;
46613;SDS011;32338;50.430;6.806;2022-10-10T01:21:22;21.05;;;4.55;;
46613;SDS011;32338;50.430;6.806;2022-10-10T01:24:00;9.88;;;3.17;;
46613;SDS011;32338;50.430;6.806;2022-10-10T01:29:37;12.35;;;3.30;;
46613;SDS011;32338;50.430;6.806;2022-10-10T01:32:07;17.10;;;3.42;;
46613;SDS011;32338;50.430;6.806;2022-10-10T01:34:40;9.25;;;3.00;;
46613;SDS011;32338;50.430;6.806;2022-10-10T01:37:15;8.65;;;3.60;;
46613;SDS011;32338;50.430;6.806;2022-10-10T01:39:48;6.25;;;3.50;;
46613;SDS011;32338;50.430;6.806;2022-10-10T01:42:22;6.68;;;3.42;;
46613;SDS011;32338;50.430;6.806;2022-10-10T01:44:55;5.78;;;2.63;;
46613;SDS011;32338;50.430;6.806;2022-10-10T01:47:22;2.58;;;1.88;;
46613;SDS011;32338;50.430;6.806;2022-10-10T01:49:50;9.27;;;2.03;;
46613;SDS011;32338;50.430;6.806;2022-10-10T01:52:21;4.30;;;2.00;;
46613;SDS011;32338;50.430;6.806;2022-10-10T01:55:01;4.53;;;2.50;;
46613;SDS011;32338;50.430;6.806;2022-10-10T01:57:49;6.88;;;3.97;;
46613;SDS011;32338;50.430;6.806;2022-10-10T02:00:29;4.68;;;3.70;;
46613;SDS011;32338;50.430;6.806;2022-10-10T02:03:01;7.53;;;3.40;;
46613;SDS011;32338;50.430;6.806;2022-10-10T02:05:35;5.97;;;3.38;;
46613;SDS011;32338;50.430;6.806;2022-10-10T02:08:09;8.40;;;2.85;;
46613;SDS011;32338;50.430;6.806;2022-10-10T02:10:41;4.45;;;2.40;;
46613;SDS011;32338;50.430;6.806;2022-10-10T02:13:11;4.78;;;2.58;;
46613;SDS011;32338;50.430;6.806;2022-10-10T02:15:42;4.75;;;3.05;;
46613;SDS011;32338;50.430;6.806;2022-10-10T02:18:12;7.07;;;3.42;;
46613;SDS011;32338;50.430;6.806;2022-10-10T02:20:41;5.00;;;4.10;;
46613;SDS011;32338;50.430;6.806;2022-10-10T02:23:09;5.03;;;3.50;;
46613;SDS011;32338;50.430;6.806;2022-10-10T02:25:40;6.72;;;2.60;;
46613;SDS011;32338;50.430;6.806;2022-10-10T02:28:10;3.35;;;2.25;;
46613;SDS011;32338;50.430;6.806;2022-10-10T02:30:43;4.72;;;2.53;;
46613;SDS011;32338;50.430;6.806;2022-10-10T02:33:12;5.03;;;2.40;;
46613;SDS011;32338;50.430;6.806;2022-10-10T02:35:44;3.00;;;2.05;;
46613;SDS011;32338;50.430;6.806;2022-10-10T02:38:13;5.00;;;2.42;;
46613;SDS011;32338;50.430;6.806;2022-10-10T02:40:41;2.38;;;1.90;;
46613;SDS011;32338;50.430;6.806;2022-10-10T02:43:10;4.22;;;1.95;;
46613;SDS011;32338;50.430;6.806;2022-10-10T02:45:37;5.97;;;2.20;;
46613;SDS011;32338;50.430;6.806;2022-10-10T02:48:07;2.75;;;2.05;;
46613;SDS011;32338;50.430;6.806;2022-10-10T02:50:33;4.97;;;1.92;;
46613;SDS011;32338;50.430;6.806;2022-10-10T02:53:00;3.17;;;1.88;;
46613;SDS011;32338;50.430;6.806;2022-10-10T02:55:27;3.47;;;2.33;;
46613;SDS011;32338;50.430;6.806;2022-10-10T02:57:53;5.95;;;1.70;;
46613;SDS011;32338;50.430;6.806;2022-10-10T03:00:20;2.55;;;2.25;;
46613;SDS011;32338;50.430;6.806;2022-10-10T03:02:46;5.38;;;2.13;;
46613;SDS011;32338;50.430;6.806;2022-10-10T03:05:14;7.18;;;3.47;;
46613;SDS011;32338;50.430;6.806;2022-10-10T03:07:41;8.82;;;2.15;;
46613;SDS011;32338;50.430;6.806;2022-10-10T03:10:08;2.00;;;1.80;;
46613;SDS011;32338;50.430;6.806;2022-10-10T03:12:35;3.58;;;2.05;;
46613;SDS011;32338;50.430;6.806;2022-10-10T03:15:02;6.93;;;2.15;;
46613;SDS011;32338;50.430;6.806;2022-10-10T03:17:29;6.22;;;2.05;;
46613;SDS011;32338;50.430;6.806;2022-10-10T03:19:56;3.20;;;1.83;;
46613;SDS011;32338;50.430;6.806;2022-10-10T03:22:24;2.28;;;2.00;;
46613;SDS011;32338;50.430;6.806;2022-10-10T03:24:50;3.65;;;1.70;;
46613;SDS011;32338;50.430;6.806;2022-10-10T03:27:17;3.92;;;1.52;;
46613;SDS011;32338;50.430;6.806;2022-10-10T03:29:43;4.28;;;1.75;;
46613;SDS011;32338;50.430;6.806;2022-10-10T03:32:10;2.33;;;1.55;;
46613;SDS011;32338;50.430;6.806;2022-10-10T03:34:36;2.88;;;1.40;;
46613;SDS011;32338;50.430;6.806;2022-10-10T03:37:03;3.00;;;1.48;;
46613;SDS011;32338;50.430;6.806;2022-10-10T03:39:31;1.73;;;1.23;;
46613;SDS011;32338;50.430;6.806;2022-10-10T03:41:57;2.00;;;1.50;;
46613;SDS011;32338;50.430;6.806;2022-10-10T03:44:24;2.17;;;1.27;;
46613;SDS011;32338;50.430;6.806;2022-10-10T03:46:50;6.32;;;1.80;;
46613;SDS011;32338;50.430;6.806;2022-10-10T03:49:17;3.63;;;1.90;;
46613;SDS011;32338;50.430;6.806;2022-10-10T03:51:44;1.65;;;1.50;;
46613;SDS011;32338;50.430;6.806;2022-10-10T03:54:10;3.05;;;1.58;;
46613;SDS011;32338;50.430;6.806;2022-10-10T03:56:38;3.15;;;1.45;;
46613;SDS011;32338;50.430;6.806;2022-10-10T03:59:05;2.42;;;1.63;;
46613;SDS011;32338;50.430;6.806;2022-10-10T04:01:32;3.72;;;1.60;;
46613;SDS011;32338;50.430;6.806;2022-10-10T04:03:58;1.80;;;1.63;;
46613;SDS011;32338;50.430;6.806;2022-10-10T04:06:25;5.00;;;1.63;;
46613;SDS011;32338;50.430;6.806;2022-10-10T04:08:52;2.50;;;1.73;;
46613;SDS011;32338;50.430;6.806;2022-10-10T04:11:19;4.20;;;1.60;;
46613;SDS011;32338;50.430;6.806;2022-10-10T04:13:47;4.32;;;1.83;;
46613;SDS011;32338;50.430;6.806;2022-10-10T04:16:13;4.93;;;1.95;;
46613;SDS011;32338;50.430;6.806;2022-10-10T04:18:40;1.73;;;1.58;;
46613;SDS011;32338;50.430;6.806;2022-10-10T04:21:06;3.83;;;1.67;;
46613;SDS011;32338;50.430;6.806;2022-10-10T04:23:33;7.20;;;2.05;;
46613;SDS011;32338;50.430;6.806;2022-10-10T04:25:59;3.15;;;1.90;;
46613;SDS011;32338;50.430;6.806;2022-10-10T04:28:26;3.50;;;1.70;;
46613;SDS011;32338;50.430;6.806;2022-10-10T04:30:54;5.95;;;2.30;;
46613;SDS011;32338;50.430;6.806;2022-10-10T04:33:21;3.13;;;2.25;;
46613;SDS011;32338;50.430;6.806;2022-10-10T04:35:48;4.30;;;2.67;;
46613;SDS011;32338;50.430;6.806;2022-10-10T04:38:15;3.45;;;2.28;;
46613;SDS011;32338;50.430;6.806;2022-10-10T04:40:43;7.35;;;2.40;;
46613;SDS011;32338;50.430;6.806;2022-10-10T04:43:10;5.63;;;3.22;;
46613;SDS011;32338;50.430;6.806;2022-10-10T04:45:36;6.05;;;2.65;;
46613;SDS011;32338;50.430;6.806;2022-10-10T04:48:04;4.07;;;2.63;;
46613;SDS011;32338;50.430;6.806;2022-10-10T04:50:31;2.65;;;2.33;;
46613;SDS011;32338;50.430;6.806;2022-10-10T04:52:58;5.85;;;2.90;;
46613;SDS011;32338;50.430;6.806;2022-10-10T04:55:24;6.75;;;2.60;;
46613;SDS011;32338;50.430;6.806;2022-10-10T04:57:51;14.80;;;6.85;;
46613;SDS011;32338;50.430;6.806;2022-10-10T05:00:18;17.83;;;6.13;;
46613;SDS011;32338;50.430;6.806;2022-10-10T05:02:44;6.45;;;3.70;;
46613;SDS011;32338;50.430;6.806;2022-10-10T05:05:12;9.65;;;2.72;;
46613;SDS011;32338;50.430;6.806;2022-10-10T05:07:39;3.40;;;2.78;;
46613;SDS011;32338;50.430;6.806;2022-10-10T05:10:06;10.50;;;3.47;;
46613;SDS011;32338;50.430;6.806;2022-10-10T05:12:33;5.68;;;2.60;;
46613;SDS011;32338;50.430;6.806;2022-10-10T05:14:59;7.78;;;2.72;;
46613;SDS011;32338;50.430;6.806;2022-10-10T05:17:26;7.00;;;2.30;;
46613;SDS011;32338;50.430;6.806;2022-10-10T05:19:52;4.35;;;2.28;;
46613;SDS011;32338;50.430;6.806;2022-10-10T05:22:20;4.65;;;2.60;;
46613;SDS011;32338;50.430;6.806;2022-10-10T05:24:47;4.43;;;2.10;;
46613;SDS011;32338;50.430;6.806;2022-10-10T05:27:13;4.60;;;2.22;;
46613;SDS011;32338;50.430;6.806;2022-10-10T05:29:40;5.95;;;2.40;;
46613;SDS011;32338;50.430;6.806;2022-10-10T05:32:06;4.60;;;2.25;;
46613;SDS011;32338;50.430;6.806;2022-10-10T05:34:33;4.97;;;2.10;;
46613;SDS011;32338;50.430;6.806;2022-10-10T05:36:59;4.78;;;1.95;;
46613;SDS011;32338;50.430;6.806;2022-10-10T05:39:28;8.30;;;2.80;;
46613;SDS011;32338;50.430;6.806;2022-10-10T05:41:55;2.70;;;2.38;;
46613;SDS011;32338;50.430;6.806;2022-10-10T05:44:21;9.00;;;2.35;;
46613;SDS011;32338;50.430;6.806;2022-10-10T05:46:48;2.55;;;1.92;;
46613;SDS011;32338;50.430;6.806;2022-10-10T05:49:14;9.75;;;2.60;;
46613;SDS011;32338;50.430;6.806;2022-10-10T05:51:41;4.13;;;2.17;;
46613;SDS011;32338;50.430;6.806;2022-10-10T05:54:08;2.47;;;1.92;;
46613;SDS011;32338;50.430;6.806;2022-10-10T05:56:35;4.63;;;1.80;;
46613;SDS011;32338;50.430;6.806;2022-10-10T05:59:02;2.17;;;1.73;;
46613;SDS011;32338;50.430;6.806;2022-10-10T06:01:29;6.88;;;2.45;;
46613;SDS011;32338;50.430;6.806;2022-10-10T06:03:56;8.43;;;2.30;;
46613;SDS011;32338;50.430;6.806;2022-10-10T06:06:23;4.00;;;2.28;;
46613;SDS011;32338;50.430;6.806;2022-10-10T06:08:50;7.93;;;2.17;;
46613;SDS011;32338;50.430;6.806;2022-10-10T06:11:17;2.35;;;1.92;;
46613;SDS011;32338;50.430;6.806;2022-10-10T06:13:46;4.40;;;2.10;;
46613;SDS011;32338;50.430;6.806;2022-10-10T06:16:15;9.25;;;2.78;;
46613;SDS011;32338;50.430;6.806;2022-10-10T06:18:41;3.22;;;1.92;;
46613;SDS011;32338;50.430;6.806;2022-10-10T06:21:09;1.95;;;1.70;;
46613;SDS011;32338;50.430;6.806;2022-10-10T06:23:36;3.72;;;1.95;;
46613;SDS011;32338;50.430;6.806;2022-10-10T06:26:03;5.40;;;2.20;;
46613;SDS011;32338;50.430;6.806;2022-10-10T06:28:29;6.78;;;2.30;;
46613;SDS011;32338;50.430;6.806;2022-10-10T06:30:59;3.03;;;2.28;;
46613;SDS011;32338;50.430;6.806;2022-10-10T06:33:27;5.93;;;1.90;;
46613;SDS011;32338;50.430;6.806;2022-10-10T06:35:53;4.60;;;2.10;;
46613;SDS011;32338;50.430;6.806;2022-10-10T06:38:20;3.80;;;2.65;;
46613;SDS011;32338;50.430;6.806;2022-10-10T06:40:47;3.88;;;1.80;;
46613;SDS011;32338;50.430;6.806;2022-10-10T06:43:13;10.55;;;3.67;;
46613;SDS011;32338;50.430;6.806;2022-10-10T06:45:41;9.30;;;4.90;;
46613;SDS011;32338;50.430;6.806;2022-10-10T06:48:10;7.82;;;4.53;;
46613;SDS011;32338;50.430;6.806;2022-10-10T06:50:38;8.63;;;5.65;;
46613;SDS011;32338;50.430;6.806;2022-10-10T06:53:05;8.23;;;5.40;;
46613;SDS011;32338;50.430;6.806;2022-10-10T06:55:32;10.27;;;6.38;;
46613;SDS011;32338;50.430;6.806;2022-10-10T06:57:58;12.35;;;6.18;;
46613;SDS011;32338;50.430;6.806;2022-10-10T07:00:25;13.30;;;8.35;;
46613;SDS011;32338;50.430;6.806;2022-10-10T07:02:51;13.73;;;6.93;;
46613;SDS011;32338;50.430;6.806;2022-10-10T07:05:19;16.33;;;7.85;;
46613;SDS011;32338;50.430;6.806;2022-10-10T07:07:46;12.48;;;7.05;;
46613;SDS011;32338;50.430;6.806;2022-10-10T07:10:13;14.30;;;6.53;;
46613;SDS011;32338;50.430;6.806;2022-10-10T07:12:40;14.98;;;7.03;;
46613;SDS011;32338;50.430;6.806;2022-10-10T07:15:07;10.02;;;6.70;;
46613;SDS011;32338;50.430;6.806;2022-10-10T07:17:34;14.98;;;6.38;;
46613;SDS011;32338;50.430;6.806;2022-10-10T07:20:01;10.80;;;6.35;;
46613;SDS011;32338;50.430;6.806;2022-10-10T07:22:29;8.35;;;5.70;;
46613;SDS011;32338;50.430;6.806;2022-10-10T07:24:55;11.48;;;6.80;;
46613;SDS011;32338;50.430;6.806;2022-10-10T07:27:22;10.77;;;6.05;;
46613;SDS011;32338;50.430;6.806;2022-10-10T07:29:48;7.25;;;5.57;;
46613;SDS011;32338;50.430;6.806;2022-10-10T07:32:15;7.03;;;4.85;;
46613;SDS011;32338;50.430;6.806;2022-10-10T07:34:41;9.02;;;5.47;;
46613;SDS011;32338;50.430;6.806;2022-10-10T07:37:08;10.18;;;5.80;;
46613;SDS011;32338;50.430;6.806;2022-10-10T07:39:36;11.70;;;5.45;;
46613;SDS011;32338;50.430;6.806;2022-10-10T07:42:03;9.85;;;5.25;;
46613;SDS011;32338;50.430;6.806;2022-10-10T07:44:29;9.70;;;4.85;;
46613;SDS011;32338;50.430;6.806;2022-10-10T07:46:56;10.02;;;4.75;;
46613;SDS011;32338;50.430;6.806;2022-10-10T07:49:22;9.13;;;6.18;;
46613;SDS011;32338;50.430;6.806;2022-10-10T07:51:49;12.68;;;5.40;;
46613;SDS011;32338;50.430;6.806;2022-10-10T07:54:15;6.97;;;5.68;;
46613;SDS011;32338;50.430;6.806;2022-10-10T07:56:43;5.60;;;4.55;;
46613;SDS011;32338;50.430;6.806;2022-10-10T07:59:10;9.82;;;4.75;;
46613;SDS011;32338;50.430;6.806;2022-10-10T08:01:36;12.43;;;5.63;;
46613;SDS011;32338;50.430;6.806;2022-10-10T08:04:03;11.13;;;5.57;;
46613;SDS011;32338;50.430;6.806;2022-10-10T08:06:29;8.25;;;5.07;;
46613;SDS011;32338;50.430;6.806;2022-10-10T08:08:56;7.00;;;4.93;;
46613;SDS011;32338;50.430;6.806;2022-10-10T08:11:22;11.43;;;4.78;;
46613;SDS011;32338;50.430;6.806;2022-10-10T08:13:50;10.30;;;4.72;;
46613;SDS011;32338;50.430;6.806;2022-10-10T08:16:17;8.02;;;4.80;;
46613;SDS011;32338;50.430;6.806;2022-10-10T08:18:44;10.25;;;4.30;;
46613;SDS011;32338;50.430;6.806;2022-10-10T08:21:11;7.10;;;4.30;;
46613;SDS011;32338;50.430;6.806;2022-10-10T08:23:39;12.88;;;4.50;;
46613;SDS011;32338;50.430;6.806;2022-10-10T08:26:06;8.90;;;5.03;;
46613;SDS011;32338;50.430;6.806;2022-10-10T08:28:36;5.78;;;4.07;;
46613;SDS011;32338;50.430;6.806;2022-10-10T08:31:05;7.63;;;4.03;;
46613;SDS011;32338;50.430;6.806;2022-10-10T08:33:32;8.00;;;4.00;;
46613;SDS011;32338;50.430;6.806;2022-10-10T08:36:02;9.13;;;4.50;;
46613;SDS011;32338;50.430;6.806;2022-10-10T08:38:30;6.63;;;3.80;;
46613;SDS011;32338;50.430;6.806;2022-10-10T08:40:56;5.95;;;3.25;;
46613;SDS011;32338;50.430;6.806;2022-10-10T08:43:26;7.90;;;4.57;;
46613;SDS011;32338;50.430;6.806;2022-10-10T08:45:58;6.85;;;4.03;;
46613;SDS011;32338;50.430;6.806;2022-10-10T08:48:34;11.88;;;4.65;;
46613;SDS011;32338;50.430;6.806;2022-10-10T08:51:05;5.75;;;3.92;;
46613;SDS011;32338;50.430;6.806;2022-10-10T08:53:38;7.95;;;4.10;;
46613;SDS011;32338;50.430;6.806;2022-10-10T08:56:08;8.93;;;3.78;;
46613;SDS011;32338;50.430;6.806;2022-10-10T08:58:41;6.80;;;3.97;;
46613;SDS011;32338;50.430;6.806;2022-10-10T09:01:13;10.20;;;4.45;;
46613;SDS011;32338;50.430;6.806;2022-10-10T09:03:44;5.22;;;3.30;;
46613;SDS011;32338;50.430;6.806;2022-10-10T09:06:17;17.23;;;4.32;;
46613;SDS011;32338;50.430;6.806;2022-10-10T09:08:53;9.65;;;3.80;;
46613;SDS011;32338;50.430;6.806;2022-10-10T09:11:34;8.63;;;4.25;;
46613;SDS011;32338;50.430;6.806;2022-10-10T09:14:14;7.10;;;3.55;;
46613;SDS011;32338;50.430;6.806;2022-10-10T09:16:49;9.68;;;3.28;;
46613;SDS011;32338;50.430;6.806;2022-10-10T09:19:23;7.32;;;3.00;;
46613;SDS011;32338;50.430;6.806;2022-10-10T09:22:00;7.20;;;3.00;;
46613;SDS011;32338;50.430;6.806;2022-10-10T09:24:31;7.43;;;2.80;;
46613;SDS011;32338;50.430;6.806;2022-10-10T09:27:03;5.15;;;2.78;;
46613;SDS011;32338;50.430;6.806;2022-10-10T09:29:36;5.65;;;2.78;;
46613;SDS011;32338;50.430;6.806;2022-10-10T09:32:09;9.75;;;3.03;;
46613;SDS011;32338;50.430;6.806;2022-10-10T09:34:40;4.28;;;2.63;;
46613;SDS011;32338;50.430;6.806;2022-10-10T09:37:11;10.13;;;2.80;;
46613;SDS011;32338;50.430;6.806;2022-10-10T09:39:41;8.43;;;2.15;;
46613;SDS011;32338;50.430;6.806;2022-10-10T09:42:14;5.40;;;1.88;;
46613;SDS011;32338;50.430;6.806;2022-10-10T09:44:44;4.40;;;2.00;;
46613;SDS011;32338;50.430;6.806;2022-10-10T09:47:13;8.40;;;1.77;;
46613;SDS011;32338;50.430;6.806;2022-10-10T09:49:41;10.48;;;2.28;;
46613;SDS011;32338;50.430;6.806;2022-10-10T09:52:16;4.82;;;1.83;;
46613;SDS011;32338;50.430;6.806;2022-10-10T09:54:49;8.80;;;2.58;;
46613;SDS011;32338;50.430;6.806;2022-10-10T09:57:18;8.00;;;2.10;;
46613;SDS011;32338;50.430;6.806;2022-10-10T09:59:50;5.47;;;2.08;;
46613;SDS011;32338;50.430;6.806;2022-10-10T10:02:19;4.95;;;2.20;;
46613;SDS011;32338;50.430;6.806;2022-10-10T10:04:48;6.28;;;2.10;;
46613;SDS011;32338;50.430;6.806;2022-10-10T10:07:18;2.78;;;1.77;;
46613;SDS011;32338;50.430;6.806;2022-10-10T10:09:47;7.35;;;2.00;;
46613;SDS011;32338;50.430;6.806;2022-10-10T10:12:15;10.30;;;1.85;;
46613;SDS011;32338;50.430;6.806;2022-10-10T10:14:47;4.85;;;1.77;;
46613;SDS011;32338;50.430;6.806;2022-10-10T10:17:16;10.65;;;2.30;;
46613;SDS011;32338;50.430;6.806;2022-10-10T10:19:47;10.35;;;2.10;;
46613;SDS011;32338;50.430;6.806;2022-10-10T10:25:00;8.27;;;2.40;;
46613;SDS011;32338;50.430;6.806;2022-10-10T10:27:59;4.78;;;1.67;;
46613;SDS011;32338;50.430;6.806;2022-10-10T10:30:39;5.55;;;1.90;;
46613;SDS011;32338;50.430;6.806;2022-10-10T10:33:08;4.47;;;1.70;;
46613;SDS011;32338;50.430;6.806;2022-10-10T10:35:44;6.25;;;1.42;;
46613;SDS011;32338;50.430;6.806;2022-10-10T10:38:24;10.18;;;1.65;;
46613;SDS011;32338;50.430;6.806;2022-10-10T10:41:02;5.25;;;1.70;;
46613;SDS011;32338;50.430;6.806;2022-10-10T10:43:42;6.07;;;1.45;;
46613;SDS011;32338;50.430;6.806;2022-10-10T10:46:20;7.70;;;1.73;;
46613;SDS011;32338;50.430;6.806;2022-10-10T10:48:58;6.43;;;1.60;;
46613;SDS011;32338;50.430;6.806;2022-10-10T10:51:45;6.25;;;1.45;;
46613;SDS011;32338;50.430;6.806;2022-10-10T10:54:28;7.65;;;1.48;;
46613;SDS011;32338;50.430;6.806;2022-10-10T10:57:09;4.55;;;2.03;;
46613;SDS011;32338;50.430;6.806;2022-10-10T10:59:43;5.95;;;1.92;;
46613;SDS011;32338;50.430;6.806;2022-10-10T11:02:24;6.50;;;1.92;;
46613;SDS011;32338;50.430;6.806;2022-10-10T11:05:01;5.75;;;1.50;;
46613;SDS011;32338;50.430;6.806;2022-10-10T11:07:40;7.28;;;1.77;;
46613;SDS011;32338;50.430;6.806;2022-10-10T11:10:14;9.35;;;1.35;;
46613;SDS011;32338;50.430;6.806;2022-10-10T11:12:53;8.73;;;1.15;;
46613;SDS011;32338;50.430;6.806;2022-10-10T11:15:28;6.88;;;1.27;;
46613;SDS011;32338;50.430;6.806;2022-10-10T11:18:02;5.57;;;1.27;;
46613;SDS011;32338;50.430;6.806;2022-10-10T11:20:36;5.85;;;1.55;;
46613;SDS011;32338;50.430;6.806;2022-10-10T11:23:09;9.10;;;1.52;;
46613;SDS011;32338;50.430;6.806;2022-10-10T11:25:40;6.53;;;1.30;;
46613;SDS011;32338;50.430;6.806;2022-10-10T11:28:12;9.18;;;1.50;;
46613;SDS011;32338;50.430;6.806;2022-10-10T11:30:45;8.63;;;1.50;;
46613;SDS011;32338;50.430;6.806;2022-10-10T11:33:17;9.52;;;1.80;;
46613;SDS011;32338;50.430;6.806;2022-10-10T11:35:49;13.90;;;1.80;;
46613;SDS011;32338;50.430;6.806;2022-10-10T11:38:23;8.95;;;1.30;;
46613;SDS011;32338;50.430;6.806;2022-10-10T11:40:54;10.55;;;1.13;;
46613;SDS011;32338;50.430;6.806;2022-10-10T11:43:26;11.60;;;1.90;;
46613;SDS011;32338;50.430;6.806;2022-10-10T11:45:59;8.52;;;1.33;;
46613;SDS011;32338;50.430;6.806;2022-10-10T11:51:10;7.35;;;1.80;;
46613;SDS011;32338;50.430;6.806;2022-10-10T11:53:46;14.80;;;1.88;;
46613;SDS011;32338;50.430;6.806;2022-10-10T11:56:20;7.88;;;1.80;;
46613;SDS011;32338;50.430;6.806;2022-10-10T11:58:55;15.35;;;1.98;;
46613;SDS011;32338;50.430;6.806;2022-10-10T12:01:26;8.45;;;2.08;;
46613;SDS011;32338;50.430;6.806;2022-10-10T12:03:55;11.13;;;2.03;;
46613;SDS011;32338;50.430;6.806;2022-10-10T12:06:23;6.65;;;1.55;;
46613;SDS011;32338;50.430;6.806;2022-10-10T12:08:57;12.25;;;2.05;;
46613;SDS011;32338;50.430;6.806;2022-10-10T12:11:28;14.40;;;2.47;;
46613;SDS011;32338;50.430;6.806;2022-10-10T12:13:58;10.27;;;2.45;;
46613;SDS011;32338;50.430;6.806;2022-10-10T12:16:28;12.48;;;1.90;;
46613;SDS011;32338;50.430;6.806;2022-10-10T12:18:59;10.30;;;1.73;;
46613;SDS011;32338;50.430;6.806;2022-10-10T12:21:27;18.42;;;1.80;;
46613;SDS011;32338;50.430;6.806;2022-10-10T12:24:09;12.35;;;2.25;;
46613;SDS011;32338;50.430;6.806;2022-10-10T12:32:53;15.95;;;2.63;;
46613;SDS011;32338;50.430;6.806;2022-10-10T12:35:28;10.27;;;1.90;;
46613;SDS011;32338;50.430;6.806;2022-10-10T12:38:08;11.25;;;2.05;;
46613;SDS011;32338;50.430;6.806;2022-10-10T12:43:48;13.13;;;1.85;;
46613;SDS011;32338;50.430;6.806;2022-10-10T12:46:24;14.88;;;2.35;;
46613;SDS011;32338;50.430;6.806;2022-10-10T12:51:26;12.30;;;2.10;;
46613;SDS011;32338;50.430;6.806;2022-10-10T12:53:56;24.60;;;2.13;;
46613;SDS011;32338;50.430;6.806;2022-10-10T12:56:38;11.95;;;1.73;;
46613;SDS011;32338;50.430;6.806;2022-10-10T12:59:12;9.13;;;2.15;;
46613;SDS011;32338;50.430;6.806;2022-10-10T13:01:44;13.43;;;1.52;;
46613;SDS011;32338;50.430;6.806;2022-10-10T13:04:15;16.48;;;1.98;;
46613;SDS011;32338;50.430;6.806;2022-10-10T13:06:44;11.88;;;1.85;;
46613;SDS011;32338;50.430;6.806;2022-10-10T13:09:15;11.95;;;2.47;;
46613;SDS011;32338;50.430;6.806;2022-10-10T13:11:53;8.73;;;1.63;;
46613;SDS011;32338;50.430;6.806;2022-10-10T13:14:23;12.73;;;1.92;;
46613;SDS011;32338;50.430;6.806;2022-10-10T13:16:51;7.65;;;2.05;;
46613;SDS011;32338;50.430;6.806;2022-10-10T13:19:19;8.93;;;1.92;;
46613;SDS011;32338;50.430;6.806;2022-10-10T13:21:48;13.90;;;2.10;;
46613;SDS011;32338;50.430;6.806;2022-10-10T13:24:16;10.30;;;1.80;;
46613;SDS011;32338;50.430;6.806;2022-10-10T13:26:46;9.90;;;1.92;;
46613;SDS011;32338;50.430;6.806;2022-10-10T13:29:19;14.45;;;2.08;;
46613;SDS011;32338;50.430;6.806;2022-10-10T13:31:50;8.17;;;1.73;;
46613;SDS011;32338;50.430;6.806;2022-10-10T13:34:20;6.90;;;1.60;;
46613;SDS011;32338;50.430;6.806;2022-10-10T13:36:51;8.93;;;1.63;;
46613;SDS011;32338;50.430;6.806;2022-10-10T13:39:18;10.07;;;1.77;;
46613;SDS011;32338;50.430;6.806;2022-10-10T13:41:45;10.15;;;1.48;;
46613;SDS011;32338;50.430;6.806;2022-10-10T13:44:14;15.35;;;2.03;;
46613;SDS011;32338;50.430;6.806;2022-10-10T13:46:45;11.63;;;1.70;;
46613;SDS011;32338;50.430;6.806;2022-10-10T13:49:18;9.82;;;1.95;;
46613;SDS011;32338;50.430;6.806;2022-10-10T13:51:48;8.02;;;1.30;;
46613;SDS011;32338;50.430;6.806;2022-10-10T13:54:36;5.93;;;1.90;;
46613;SDS011;32338;50.430;6.806;2022-10-10T13:57:05;13.63;;;1.50;;
46613;SDS011;32338;50.430;6.806;2022-10-10T13:59:38;9.35;;;2.10;;
46613;SDS011;32338;50.430;6.806;2022-10-10T14:02:07;7.03;;;2.22;;
46613;SDS011;32338;50.430;6.806;2022-10-10T14:04:45;10.60;;;1.70;;
46613;SDS011;32338;50.430;6.806;2022-10-10T14:07:16;7.70;;;1.58;;
46613;SDS011;32338;50.430;6.806;2022-10-10T14:09:47;8.50;;;1.73;;
46613;SDS011;32338;50.430;6.806;2022-10-10T14:12:18;10.68;;;1.50;;
46613;SDS011;32338;50.430;6.806;2022-10-10T14:14:50;12.95;;;1.85;;
46613;SDS011;32338;50.430;6.806;2022-10-10T14:17:19;15.10;;;2.28;;
46613;SDS011;32338;50.430;6.806;2022-10-10T14:19:47;11.13;;;1.80;;
46613;SDS011;32338;50.430;6.806;2022-10-10T14:22:15;9.38;;;1.63;;
46613;SDS011;32338;50.430;6.806;2022-10-10T14:24:42;9.63;;;2.20;;
46613;SDS011;32338;50.430;6.806;2022-10-10T14:27:11;14.93;;;2.10;;
46613;SDS011;32338;50.430;6.806;2022-10-10T14:29:41;10.35;;;2.15;;
46613;SDS011;32338;50.430;6.806;2022-10-10T14:32:08;6.88;;;1.90;;
46613;SDS011;32338;50.430;6.806;2022-10-10T14:34:35;7.10;;;1.90;;
46613;SDS011;32338;50.430;6.806;2022-10-10T14:37:03;11.90;;;2.10;;
46613;SDS011;32338;50.430;6.806;2022-10-10T14:39:30;9.63;;;2.05;;
46613;SDS011;32338;50.430;6.806;2022-10-10T14:41:56;8.05;;;1.85;;
46613;SDS011;32338;50.430;6.806;2022-10-10T14:44:26;12.63;;;2.13;;
46613;SDS011;32338;50.430;6.806;2022-10-10T14:46:52;12.95;;;2.22;;
46613;SDS011;32338;50.430;6.806;2022-10-10T14:49:19;9.88;;;2.10;;
46613;SDS011;32338;50.430;6.806;2022-10-10T14:51:46;12.23;;;2.03;;
46613;SDS011;32338;50.430;6.806;2022-10-10T14:54:14;17.25;;;2.67;;
46613;SDS011;32338;50.430;6.806;2022-10-10T14:56:41;8.50;;;1.95;;
46613;SDS011;32338;50.430;6.806;2022-10-10T14:59:13;11.50;;;1.75;;
46613;SDS011;32338;50.430;6.806;2022-10-10T15:01:42;12.57;;;2.30;;
46613;SDS011;32338;50.430;6.806;2022-10-10T15:04:08;12.15;;;2.17;;
46613;SDS011;32338;50.430;6.806;2022-10-10T15:06:35;8.30;;;1.60;;
46613;SDS011;32338;50.430;6.806;2022-10-10T15:09:02;14.68;;;1.90;;
46613;SDS011;32338;50.430;6.806;2022-10-10T15:11:30;7.75;;;1.77;;
46613;SDS011;32338;50.430;6.806;2022-10-10T15:13:56;9.73;;;2.05;;
46613;SDS011;32338;50.430;6.806;2022-10-10T15:16:23;11.35;;;2.13;;
46613;SDS011;32338;50.430;6.806;2022-10-10T15:18:49;11.15;;;3.05;;